sensor_id;sensor_type;location;lat;lon;timestamp;temperature;humidity
34542;DHT22;20784;51.332;12.410;2023-05-13T00:00:40;14.80;1.00
34542;DHT22;20784;51.332;12.410;2023-05-13T00:03:05;14.60;1.00
34542;DHT22;20784;51.332;12.410;2023-05-13T00:05:31;14.60;1.80
34542;DHT22;20784;51.332;12.410;2023-05-13T00:07:56;14.60;1.00
34542;DHT22;20784;51.332;12.410;2023-05-13T00:10:26;14.50;1.00
34542;DHT22;20784;51.332;12.410;2023-05-13T00:12:51;14.50;10.30
34542;DHT22;20784;51.332;12.410;2023-05-13T00:15:23;14.50;22.00
34542;DHT22;20784;51.332;12.410;2023-05-13T00:17:49;14.40;12.10
34542;DHT22;20784;51.332;12.410;2023-05-13T00:20:14;14.40;29.20
34542;DHT22;20784;51.332;12.410;2023-05-13T00:22:40;14.30;26.80
34542;DHT22;20784;51.332;12.410;2023-05-13T00:25:06;14.30;32.00
34542;DHT22;20784;51.332;12.410;2023-05-13T00:27:32;14.30;23.30
34542;DHT22;20784;51.332;12.410;2023-05-13T00:29:58;14.30;24.50
34542;DHT22;20784;51.332;12.410;2023-05-13T00:32:24;14.30;21.30
34542;DHT22;20784;51.332;12.410;2023-05-13T00:34:50;14.30;24.00
34542;DHT22;20784;51.332;12.410;2023-05-13T00:37:15;14.30;34.80
34542;DHT22;20784;51.332;12.410;2023-05-13T00:39:41;14.20;35.20
34542;DHT22;20784;51.332;12.410;2023-05-13T00:42:06;14.30;35.10
34542;DHT22;20784;51.332;12.410;2023-05-13T00:44:35;14.30;12.30
34542;DHT22;20784;51.332;12.410;2023-05-13T00:47:01;14.30;1.00
34542;DHT22;20784;51.332;12.410;2023-05-13T00:49:26;14.30;30.10
34542;DHT22;20784;51.332;12.410;2023-05-13T00:51:52;14.30;37.90
34542;DHT22;20784;51.332;12.410;2023-05-13T00:54:19;14.20;29.10
34542;DHT22;20784;51.332;12.410;2023-05-13T00:56:45;14.20;30.30
34542;DHT22;20784;51.332;12.410;2023-05-13T00:59:13;14.10;24.80
34542;DHT22;20784;51.332;12.410;2023-05-13T01:04:47;14.10;20.60
34542;DHT22;20784;51.332;12.410;2023-05-13T01:07:43;14.10;5.40
34542;DHT22;20784;51.332;12.410;2023-05-13T01:10:30;14.00;23.80
34542;DHT22;20784;51.332;12.410;2023-05-13T01:13:03;14.00;33.00
34542;DHT22;20784;51.332;12.410;2023-05-13T01:15:30;14.00;43.40
34542;DHT22;20784;51.332;12.410;2023-05-13T01:18:05;13.90;39.80
34542;DHT22;20784;51.332;12.410;2023-05-13T01:20:32;14.00;34.80
34542;DHT22;20784;51.332;12.410;2023-05-13T01:22:58;14.00;47.60
34542;DHT22;20784;51.332;12.410;2023-05-13T01:25:24;13.90;45.70
34542;DHT22;20784;51.332;12.410;2023-05-13T01:27:51;13.80;40.30
34542;DHT22;20784;51.332;12.410;2023-05-13T01:30:23;13.80;47.80
34542;DHT22;20784;51.332;12.410;2023-05-13T01:32:49;13.80;34.40
34542;DHT22;20784;51.332;12.410;2023-05-13T01:35:18;13.80;48.00
34542;DHT22;20784;51.332;12.410;2023-05-13T01:37:45;13.80;34.10
34542;DHT22;20784;51.332;12.410;2023-05-13T01:40:11;13.80;45.40
34542;DHT22;20784;51.332;12.410;2023-05-13T01:42:37;13.80;53.10
34542;DHT22;20784;51.332;12.410;2023-05-13T01:45:03;13.80;53.50
34542;DHT22;20784;51.332;12.410;2023-05-13T01:47:29;13.90;52.40
34542;DHT22;20784;51.332;12.410;2023-05-13T01:49:54;13.90;55.60
34542;DHT22;20784;51.332;12.410;2023-05-13T01:52:20;13.90;48.70
34542;DHT22;20784;51.332;12.410;2023-05-13T01:54:46;13.80;55.70
34542;DHT22;20784;51.332;12.410;2023-05-13T01:57:11;13.80;62.90
34542;DHT22;20784;51.332;12.410;2023-05-13T01:59:37;13.80;55.40
34542;DHT22;20784;51.332;12.410;2023-05-13T02:02:02;13.70;57.60
34542;DHT22;20784;51.332;12.410;2023-05-13T02:04:30;13.70;57.10
34542;DHT22;20784;51.332;12.410;2023-05-13T02:06:56;13.80;42.30
34542;DHT22;20784;51.332;12.410;2023-05-13T02:09:21;13.80;54.20
34542;DHT22;20784;51.332;12.410;2023-05-13T02:11:47;13.70;52.90
34542;DHT22;20784;51.332;12.410;2023-05-13T02:14:13;13.70;55.50
34542;DHT22;20784;51.332;12.410;2023-05-13T02:16:39;13.70;45.80
34542;DHT22;20784;51.332;12.410;2023-05-13T02:19:05;13.60;53.10
34542;DHT22;20784;51.332;12.410;2023-05-13T02:21:30;13.70;50.20
34542;DHT22;20784;51.332;12.410;2023-05-13T02:23:56;13.50;59.20
34542;DHT22;20784;51.332;12.410;2023-05-13T02:26:24;13.60;67.80
34542;DHT22;20784;51.332;12.410;2023-05-13T02:28:50;13.40;70.40
34542;DHT22;20784;51.332;12.410;2023-05-13T02:31:16;13.50;69.80
34542;DHT22;20784;51.332;12.410;2023-05-13T02:33:41;13.40;78.10
34542;DHT22;20784;51.332;12.410;2023-05-13T02:36:07;13.40;75.50
34542;DHT22;20784;51.332;12.410;2023-05-13T02:38:33;13.40;76.70
34542;DHT22;20784;51.332;12.410;2023-05-13T02:40:59;13.40;77.40
34542;DHT22;20784;51.332;12.410;2023-05-13T02:43:26;13.40;76.00
34542;DHT22;20784;51.332;12.410;2023-05-13T02:45:52;13.40;77.40
34542;DHT22;20784;51.332;12.410;2023-05-13T02:48:17;13.30;87.00
34542;DHT22;20784;51.332;12.410;2023-05-13T02:50:43;13.30;81.10
34542;DHT22;20784;51.332;12.410;2023-05-13T02:53:10;13.30;92.90
34542;DHT22;20784;51.332;12.410;2023-05-13T02:55:36;13.20;89.00
34542;DHT22;20784;51.332;12.410;2023-05-13T02:58:01;13.20;94.40
34542;DHT22;20784;51.332;12.410;2023-05-13T03:00:27;13.30;93.80
34542;DHT22;20784;51.332;12.410;2023-05-13T03:02:52;13.30;92.80
34542;DHT22;20784;51.332;12.410;2023-05-13T03:05:18;13.40;91.30
34542;DHT22;20784;51.332;12.410;2023-05-13T03:07:43;13.30;90.20
34542;DHT22;20784;51.332;12.410;2023-05-13T03:10:09;13.20;96.60
34542;DHT22;20784;51.332;12.410;2023-05-13T03:12:37;13.20;99.60
34542;DHT22;20784;51.332;12.410;2023-05-13T03:15:03;13.20;98.70
34542;DHT22;20784;51.332;12.410;2023-05-13T03:17:29;13.10;99.90
34542;DHT22;20784;51.332;12.410;2023-05-13T03:19:58;13.10;99.90
34542;DHT22;20784;51.332;12.410;2023-05-13T03:22:24;13.10;99.90
34542;DHT22;20784;51.332;12.410;2023-05-13T03:24:49;13.00;99.90
34542;DHT22;20784;51.332;12.410;2023-05-13T03:27:15;13.00;99.90
34542;DHT22;20784;51.332;12.410;2023-05-13T03:29:41;12.90;99.90
34542;DHT22;20784;51.332;12.410;2023-05-13T03:32:06;12.90;99.90
34542;DHT22;20784;51.332;12.410;2023-05-13T03:34:37;12.90;99.90
34542;DHT22;20784;51.332;12.410;2023-05-13T03:37:03;12.80;99.90
34542;DHT22;20784;51.332;12.410;2023-05-13T03:39:32;12.70;99.90
34542;DHT22;20784;51.332;12.410;2023-05-13T03:41:57;12.80;99.90
34542;DHT22;20784;51.332;12.410;2023-05-13T03:44:30;12.70;99.90
34542;DHT22;20784;51.332;12.410;2023-05-13T03:46:56;12.70;99.90
34542;DHT22;20784;51.332;12.410;2023-05-13T03:49:35;12.60;99.90
34542;DHT22;20784;51.332;12.410;2023-05-13T03:52:03;12.60;99.90
34542;DHT22;20784;51.332;12.410;2023-05-13T03:54:55;12.70;99.10
34542;DHT22;20784;51.332;12.410;2023-05-13T03:57:21;12.80;98.90
34542;DHT22;20784;51.332;12.410;2023-05-13T03:59:46;12.60;98.30
34542;DHT22;20784;51.332;12.410;2023-05-13T04:02:12;12.60;99.90
34542;DHT22;20784;51.332;12.410;2023-05-13T04:04:37;12.40;99.90
34542;DHT22;20784;51.332;12.410;2023-05-13T04:07:03;12.40;99.90
34542;DHT22;20784;51.332;12.410;2023-05-13T04:09:29;12.30;99.90
34542;DHT22;20784;51.332;12.410;2023-05-13T04:12:00;12.30;99.90
34542;DHT22;20784;51.332;12.410;2023-05-13T04:14:26;12.30;99.90
34542;DHT22;20784;51.332;12.410;2023-05-13T04:16:51;12.30;99.90
34542;DHT22;20784;51.332;12.410;2023-05-13T04:19:17;12.20;99.90
34542;DHT22;20784;51.332;12.410;2023-05-13T04:21:42;12.30;99.90
34542;DHT22;20784;51.332;12.410;2023-05-13T04:24:08;12.30;99.90
34542;DHT22;20784;51.332;12.410;2023-05-13T04:26:33;12.20;99.90
34542;DHT22;20784;51.332;12.410;2023-05-13T04:28:59;12.20;99.90
34542;DHT22;20784;51.332;12.410;2023-05-13T04:31:24;12.20;99.90
34542;DHT22;20784;51.332;12.410;2023-05-13T04:33:53;12.20;99.90
34542;DHT22;20784;51.332;12.410;2023-05-13T04:36:24;12.20;99.90
34542;DHT22;20784;51.332;12.410;2023-05-13T04:38:50;12.30;99.90
34542;DHT22;20784;51.332;12.410;2023-05-13T04:41:19;12.40;99.90
34542;DHT22;20784;51.332;12.410;2023-05-13T04:43:50;12.40;99.90
34542;DHT22;20784;51.332;12.410;2023-05-13T04:46:16;12.40;99.90
34542;DHT22;20784;51.332;12.410;2023-05-13T04:48:42;12.50;99.90
34542;DHT22;20784;51.332;12.410;2023-05-13T04:51:15;12.60;99.90
34542;DHT22;20784;51.332;12.410;2023-05-13T04:53:44;12.60;99.90
34542;DHT22;20784;51.332;12.410;2023-05-13T04:56:12;12.70;99.90
34542;DHT22;20784;51.332;12.410;2023-05-13T04:58:37;12.70;99.90
34542;DHT22;20784;51.332;12.410;2023-05-13T05:01:03;12.70;99.90
34542;DHT22;20784;51.332;12.410;2023-05-13T05:03:29;12.70;99.90
34542;DHT22;20784;51.332;12.410;2023-05-13T05:05:55;12.80;99.90
34542;DHT22;20784;51.332;12.410;2023-05-13T05:08:21;13.00;99.90
34542;DHT22;20784;51.332;12.410;2023-05-13T05:10:46;13.20;99.90
34542;DHT22;20784;51.332;12.410;2023-05-13T05:13:12;13.00;99.90
34542;DHT22;20784;51.332;12.410;2023-05-13T05:15:37;13.10;99.90
34542;DHT22;20784;51.332;12.410;2023-05-13T05:18:03;13.30;99.90
34542;DHT22;20784;51.332;12.410;2023-05-13T05:20:30;13.30;99.20
34542;DHT22;20784;51.332;12.410;2023-05-13T05:22:56;13.40;97.00
34542;DHT22;20784;51.332;12.410;2023-05-13T05:25:22;13.30;99.10
34542;DHT22;20784;51.332;12.410;2023-05-13T05:27:49;13.40;99.90
34542;DHT22;20784;51.332;12.410;2023-05-13T05:30:14;13.50;99.90
34542;DHT22;20784;51.332;12.410;2023-05-13T05:32:40;13.60;99.90
34542;DHT22;20784;51.332;12.410;2023-05-13T05:35:06;13.70;93.80
34542;DHT22;20784;51.332;12.410;2023-05-13T05:37:35;13.80;90.70
34542;DHT22;20784;51.332;12.410;2023-05-13T05:40:01;13.90;86.90
34542;DHT22;20784;51.332;12.410;2023-05-13T05:42:26;13.90;84.50
34542;DHT22;20784;51.332;12.410;2023-05-13T05:44:52;13.90;79.70
34542;DHT22;20784;51.332;12.410;2023-05-13T05:47:17;14.00;84.00
34542;DHT22;20784;51.332;12.410;2023-05-13T05:49:43;14.00;86.40
34542;DHT22;20784;51.332;12.410;2023-05-13T05:52:09;14.00;85.50
34542;DHT22;20784;51.332;12.410;2023-05-13T05:54:37;14.10;81.00
34542;DHT22;20784;51.332;12.410;2023-05-13T05:57:02;14.20;74.60
34542;DHT22;20784;51.332;12.410;2023-05-13T05:59:28;14.20;75.50
34542;DHT22;20784;51.332;12.410;2023-05-13T06:01:56;14.20;73.60
34542;DHT22;20784;51.332;12.410;2023-05-13T06:04:22;14.30;74.40
34542;DHT22;20784;51.332;12.410;2023-05-13T06:06:49;14.30;65.00
34542;DHT22;20784;51.332;12.410;2023-05-13T06:09:14;14.50;60.70
34542;DHT22;20784;51.332;12.410;2023-05-13T06:11:40;14.60;60.00
34542;DHT22;20784;51.332;12.410;2023-05-13T06:14:06;14.70;50.70
34542;DHT22;20784;51.332;12.410;2023-05-13T06:16:31;14.70;43.60
34542;DHT22;20784;51.332;12.410;2023-05-13T06:18:57;14.80;28.60
34542;DHT22;20784;51.332;12.410;2023-05-13T06:21:23;14.90;18.00
34542;DHT22;20784;51.332;12.410;2023-05-13T06:23:48;15.00;1.40
34542;DHT22;20784;51.332;12.410;2023-05-13T06:26:14;15.10;1.00
34542;DHT22;20784;51.332;12.410;2023-05-13T06:28:39;15.10;1.00
34542;DHT22;20784;51.332;12.410;2023-05-13T06:31:05;15.30;1.00
34542;DHT22;20784;51.332;12.410;2023-05-13T06:33:31;15.30;1.00
34542;DHT22;20784;51.332;12.410;2023-05-13T06:35:57;15.40;1.00
34542;DHT22;20784;51.332;12.410;2023-05-13T06:38:22;15.40;1.00
34542;DHT22;20784;51.332;12.410;2023-05-13T06:40:48;15.60;1.00
34542;DHT22;20784;51.332;12.410;2023-05-13T06:43:14;15.70;1.00
34542;DHT22;20784;51.332;12.410;2023-05-13T06:45:41;15.70;1.00
34542;DHT22;20784;51.332;12.410;2023-05-13T06:48:07;15.80;1.00
34542;DHT22;20784;51.332;12.410;2023-05-13T06:50:32;15.90;1.00
34542;DHT22;20784;51.332;12.410;2023-05-13T06:52:58;16.00;1.00
34542;DHT22;20784;51.332;12.410;2023-05-13T06:55:23;16.00;1.00
34542;DHT22;20784;51.332;12.410;2023-05-13T06:57:49;16.00;1.00
34542;DHT22;20784;51.332;12.410;2023-05-13T07:00:15;16.20;1.00
34542;DHT22;20784;51.332;12.410;2023-05-13T07:02:42;16.20;1.00
34542;DHT22;20784;51.332;12.410;2023-05-13T07:05:09;16.40;1.00
34542;DHT22;20784;51.332;12.410;2023-05-13T07:07:35;16.40;1.00
34542;DHT22;20784;51.332;12.410;2023-05-13T07:10:00;16.50;1.00
34542;DHT22;20784;51.332;12.410;2023-05-13T07:12:26;16.60;73.20
34542;DHT22;20784;51.332;12.410;2023-05-13T07:14:52;16.70;1.00
34542;DHT22;20784;51.332;12.410;2023-05-13T07:17:20;16.80;1.00
34542;DHT22;20784;51.332;12.410;2023-05-13T07:19:45;16.80;1.00
34542;DHT22;20784;51.332;12.410;2023-05-13T07:22:11;16.90;99.90
34542;DHT22;20784;51.332;12.410;2023-05-13T07:24:39;17.00;99.90
34542;DHT22;20784;51.332;12.410;2023-05-13T07:27:06;17.10;1.00
34542;DHT22;20784;51.332;12.410;2023-05-13T07:29:34;17.20;99.90
34542;DHT22;20784;51.332;12.410;2023-05-13T07:32:03;17.20;1.00
34542;DHT22;20784;51.332;12.410;2023-05-13T07:34:29;17.40;99.90
34542;DHT22;20784;51.332;12.410;2023-05-13T07:36:55;17.60;99.90
34542;DHT22;20784;51.332;12.410;2023-05-13T07:39:20;17.70;99.90
34542;DHT22;20784;51.332;12.410;2023-05-13T07:41:49;17.90;99.90
34542;DHT22;20784;51.332;12.410;2023-05-13T07:44:17;18.00;99.90
34542;DHT22;20784;51.332;12.410;2023-05-13T07:46:48;18.00;99.90
34542;DHT22;20784;51.332;12.410;2023-05-13T07:49:15;18.20;91.70
34542;DHT22;20784;51.332;12.410;2023-05-13T07:51:41;18.40;54.80
34542;DHT22;20784;51.332;12.410;2023-05-13T07:54:08;18.50;42.60
34542;DHT22;20784;51.332;12.410;2023-05-13T07:56:35;18.70;99.90
34542;DHT22;20784;51.332;12.410;2023-05-13T07:59:02;18.80;1.00
34542;DHT22;20784;51.332;12.410;2023-05-13T08:01:28;19.00;1.00
34542;DHT22;20784;51.332;12.410;2023-05-13T08:03:54;19.10;99.90
34542;DHT22;20784;51.332;12.410;2023-05-13T08:06:19;19.20;99.90
34542;DHT22;20784;51.332;12.410;2023-05-13T08:08:45;19.40;1.00
34542;DHT22;20784;51.332;12.410;2023-05-13T08:11:11;19.70;99.90
34542;DHT22;20784;51.332;12.410;2023-05-13T08:13:37;19.90;1.00
34542;DHT22;20784;51.332;12.410;2023-05-13T08:16:03;20.00;99.90
34542;DHT22;20784;51.332;12.410;2023-05-13T08:18:31;20.00;99.90
34542;DHT22;20784;51.332;12.410;2023-05-13T08:20:57;20.20;99.90
34542;DHT22;20784;51.332;12.410;2023-05-13T08:23:23;20.30;1.00
34542;DHT22;20784;51.332;12.410;2023-05-13T08:25:50;20.30;99.90
34542;DHT22;20784;51.332;12.410;2023-05-13T08:28:16;20.40;99.90
34542;DHT22;20784;51.332;12.410;2023-05-13T08:30:45;20.60;99.90
34542;DHT22;20784;51.332;12.410;2023-05-13T08:33:11;20.80;15.20
34542;DHT22;20784;51.332;12.410;2023-05-13T08:35:37;21.10;1.00
34542;DHT22;20784;51.332;12.410;2023-05-13T08:38:02;21.30;99.90
34542;DHT22;20784;51.332;12.410;2023-05-13T08:40:34;21.30;1.00
34542;DHT22;20784;51.332;12.410;2023-05-13T08:43:00;21.30;99.90
34542;DHT22;20784;51.332;12.410;2023-05-13T08:45:32;21.40;1.00
34542;DHT22;20784;51.332;12.410;2023-05-13T08:48:00;21.50;1.00
34542;DHT22;20784;51.332;12.410;2023-05-13T08:50:30;21.70;1.00
34542;DHT22;20784;51.332;12.410;2023-05-13T08:52:57;21.70;1.00
34542;DHT22;20784;51.332;12.410;2023-05-13T08:55:27;21.90;1.00
34542;DHT22;20784;51.332;12.410;2023-05-13T08:57:56;21.90;1.00
34542;DHT22;20784;51.332;12.410;2023-05-13T09:00:22;22.00;99.90
34542;DHT22;20784;51.332;12.410;2023-05-13T09:02:49;22.20;99.90
34542;DHT22;20784;51.332;12.410;2023-05-13T09:05:16;22.20;99.90
34542;DHT22;20784;51.332;12.410;2023-05-13T09:07:45;22.30;99.90
34542;DHT22;20784;51.332;12.410;2023-05-13T09:10:11;22.30;99.90
34542;DHT22;20784;51.332;12.410;2023-05-13T09:12:51;22.30;99.90
34542;DHT22;20784;51.332;12.410;2023-05-13T09:15:22;22.30;99.90
34542;DHT22;20784;51.332;12.410;2023-05-13T09:18:14;22.20;98.10
34542;DHT22;20784;51.332;12.410;2023-05-13T09:21:36;22.10;95.90
34542;DHT22;20784;51.332;12.410;2023-05-13T09:24:05;22.40;99.90
34542;DHT22;20784;51.332;12.410;2023-05-13T09:26:35;22.60;8.00
34542;DHT22;20784;51.332;12.410;2023-05-13T09:29:17;22.30;1.00
34542;DHT22;20784;51.332;12.410;2023-05-13T09:31:44;22.40;42.10
34542;DHT22;20784;51.332;12.410;2023-05-13T09:34:14;22.70;2.10
34542;DHT22;20784;51.332;12.410;2023-05-13T09:36:42;22.80;1.00
34542;DHT22;20784;51.332;12.410;2023-05-13T09:39:39;23.10;1.00
34542;DHT22;20784;51.332;12.410;2023-05-13T09:42:17;23.40;1.00
34542;DHT22;20784;51.332;12.410;2023-05-13T09:45:10;23.60;1.00
34542;DHT22;20784;51.332;12.410;2023-05-13T09:47:37;23.40;1.00
34542;DHT22;20784;51.332;12.410;2023-05-13T09:50:03;23.30;1.00
34542;DHT22;20784;51.332;12.410;2023-05-13T09:52:30;23.40;1.00
34542;DHT22;20784;51.332;12.410;2023-05-13T10:00:42;24.10;1.00
34542;DHT22;20784;51.332;12.410;2023-05-13T10:03:19;23.90;1.00
34542;DHT22;20784;51.332;12.410;2023-05-13T10:05:45;24.00;1.00
34542;DHT22;20784;51.332;12.410;2023-05-13T10:08:16;24.10;1.00
34542;DHT22;20784;51.332;12.410;2023-05-13T10:10:43;23.90;1.00
34542;DHT22;20784;51.332;12.410;2023-05-13T10:13:15;23.50;1.00
34542;DHT22;20784;51.332;12.410;2023-05-13T10:15:54;23.20;1.00
34542;DHT22;20784;51.332;12.410;2023-05-13T10:18:23;23.40;1.00
34542;DHT22;20784;51.332;12.410;2023-05-13T10:21:18;23.40;1.00
34542;DHT22;20784;51.332;12.410;2023-05-13T10:24:06;22.90;1.00
34542;DHT22;20784;51.332;12.410;2023-05-13T10:26:42;23.20;1.00
34542;DHT22;20784;51.332;12.410;2023-05-13T10:29:14;23.50;1.00
34542;DHT22;20784;51.332;12.410;2023-05-13T10:32:10;23.50;1.00
34542;DHT22;20784;51.332;12.410;2023-05-13T10:34:37;23.10;1.00
34542;DHT22;20784;51.332;12.410;2023-05-13T10:37:20;23.10;1.00
34542;DHT22;20784;51.332;12.410;2023-05-13T10:40:21;22.80;1.00
34542;DHT22;20784;51.332;12.410;2023-05-13T10:43:19;22.80;1.00
34542;DHT22;20784;51.332;12.410;2023-05-13T10:45:55;23.20;1.00
34542;DHT22;20784;51.332;12.410;2023-05-13T10:48:24;23.50;1.00
34542;DHT22;20784;51.332;12.410;2023-05-13T10:51:16;23.80;1.00
34542;DHT22;20784;51.332;12.410;2023-05-13T10:53:50;24.10;1.00
34542;DHT22;20784;51.332;12.410;2023-05-13T10:56:28;23.80;1.00
34542;DHT22;20784;51.332;12.410;2023-05-13T10:59:01;23.80;1.00
34542;DHT22;20784;51.332;12.410;2023-05-13T11:01:37;23.90;1.00
34542;DHT22;20784;51.332;12.410;2023-05-13T11:04:23;24.30;1.00
34542;DHT22;20784;51.332;12.410;2023-05-13T11:07:17;24.50;99.90
34542;DHT22;20784;51.332;12.410;2023-05-13T11:09:48;24.30;99.90
34542;DHT22;20784;51.332;12.410;2023-05-13T11:12:19;23.70;99.90
34542;DHT22;20784;51.332;12.410;2023-05-13T11:17:31;24.00;99.90
34542;DHT22;20784;51.332;12.410;2023-05-13T11:19:59;24.20;99.90
34542;DHT22;20784;51.332;12.410;2023-05-13T11:22:25;24.60;99.90
34542;DHT22;20784;51.332;12.410;2023-05-13T11:25:05;24.90;99.90
34542;DHT22;20784;51.332;12.410;2023-05-13T11:27:38;24.90;99.90
34542;DHT22;20784;51.332;12.410;2023-05-13T11:30:36;24.80;99.90
34542;DHT22;20784;51.332;12.410;2023-05-13T11:36:06;24.30;99.90
34542;DHT22;20784;51.332;12.410;2023-05-13T11:38:33;23.90;99.90
34542;DHT22;20784;51.332;12.410;2023-05-13T11:40:59;24.00;99.90
34542;DHT22;20784;51.332;12.410;2023-05-13T11:43:28;24.10;99.90
34542;DHT22;20784;51.332;12.410;2023-05-13T11:45:54;24.30;99.90
34542;DHT22;20784;51.332;12.410;2023-05-13T11:48:21;24.40;99.90
34542;DHT22;20784;51.332;12.410;2023-05-13T11:50:49;24.70;99.90
34542;DHT22;20784;51.332;12.410;2023-05-13T11:53:27;24.80;99.90
34542;DHT22;20784;51.332;12.410;2023-05-13T11:55:56;24.70;99.90
34542;DHT22;20784;51.332;12.410;2023-05-13T11:58:35;25.00;99.90
34542;DHT22;20784;51.332;12.410;2023-05-13T12:01:01;25.00;99.90
34542;DHT22;20784;51.332;12.410;2023-05-13T12:03:29;24.90;99.90
34542;DHT22;20784;51.332;12.410;2023-05-13T12:06:01;25.00;99.90
34542;DHT22;20784;51.332;12.410;2023-05-13T12:08:27;24.80;99.90
34542;DHT22;20784;51.332;12.410;2023-05-13T12:10:53;24.70;99.90
34542;DHT22;20784;51.332;12.410;2023-05-13T12:13:19;24.80;99.90
34542;DHT22;20784;51.332;12.410;2023-05-13T12:15:45;25.10;99.90
34542;DHT22;20784;51.332;12.410;2023-05-13T12:18:11;25.10;99.90
34542;DHT22;20784;51.332;12.410;2023-05-13T12:20:37;24.80;99.90
34542;DHT22;20784;51.332;12.410;2023-05-13T12:23:06;24.70;99.90
34542;DHT22;20784;51.332;12.410;2023-05-13T12:28:07;24.30;99.90
34542;DHT22;20784;51.332;12.410;2023-05-13T12:30:38;24.30;99.90
34542;DHT22;20784;51.332;12.410;2023-05-13T12:33:04;24.30;99.90
34542;DHT22;20784;51.332;12.410;2023-05-13T12:35:31;24.70;99.90
34542;DHT22;20784;51.332;12.410;2023-05-13T12:38:05;24.90;99.90
34542;DHT22;20784;51.332;12.410;2023-05-13T12:40:31;24.70;99.90
34542;DHT22;20784;51.332;12.410;2023-05-13T12:42:57;24.60;99.90
34542;DHT22;20784;51.332;12.410;2023-05-13T12:45:27;24.50;99.90
34542;DHT22;20784;51.332;12.410;2023-05-13T12:47:54;24.40;99.90
34542;DHT22;20784;51.332;12.410;2023-05-13T12:50:19;24.40;99.90
34542;DHT22;20784;51.332;12.410;2023-05-13T12:52:45;24.40;99.90
34542;DHT22;20784;51.332;12.410;2023-05-13T12:55:11;24.50;99.90
34542;DHT22;20784;51.332;12.410;2023-05-13T12:58:14;24.40;99.90
34542;DHT22;20784;51.332;12.410;2023-05-13T13:00:40;24.30;99.90
34542;DHT22;20784;51.332;12.410;2023-05-13T13:03:06;23.90;99.90
34542;DHT22;20784;51.332;12.410;2023-05-13T13:05:35;23.70;99.90
34542;DHT22;20784;51.332;12.410;2023-05-13T13:08:00;23.60;99.90
34542;DHT22;20784;51.332;12.410;2023-05-13T13:10:27;23.30;99.90
34542;DHT22;20784;51.332;12.410;2023-05-13T13:12:52;23.00;99.90
34542;DHT22;20784;51.332;12.410;2023-05-13T13:15:18;22.70;99.90
34542;DHT22;20784;51.332;12.410;2023-05-13T13:17:47;22.60;99.90
34542;DHT22;20784;51.332;12.410;2023-05-13T13:20:12;22.30;99.90
34542;DHT22;20784;51.332;12.410;2023-05-13T13:22:38;22.20;99.90
34542;DHT22;20784;51.332;12.410;2023-05-13T13:25:05;22.00;99.90
34542;DHT22;20784;51.332;12.410;2023-05-13T13:27:31;21.90;99.90
34542;DHT22;20784;51.332;12.410;2023-05-13T13:29:57;21.60;99.90
34542;DHT22;20784;51.332;12.410;2023-05-13T13:32:23;21.70;99.90
34542;DHT22;20784;51.332;12.410;2023-05-13T13:34:49;21.60;99.90
34542;DHT22;20784;51.332;12.410;2023-05-13T13:37:14;21.70;99.90
34542;DHT22;20784;51.332;12.410;2023-05-13T13:39:40;21.70;99.90
34542;DHT22;20784;51.332;12.410;2023-05-13T13:42:06;21.80;99.90
34542;DHT22;20784;51.332;12.410;2023-05-13T13:44:31;21.80;99.90
34542;DHT22;20784;51.332;12.410;2023-05-13T13:46:58;21.80;99.90
34542;DHT22;20784;51.332;12.410;2023-05-13T13:49:23;21.60;99.90
34542;DHT22;20784;51.332;12.410;2023-05-13T13:51:50;21.50;99.90
34542;DHT22;20784;51.332;12.410;2023-05-13T13:54:19;21.50;99.90
34542;DHT22;20784;51.332;12.410;2023-05-13T13:56:45;21.40;99.90
34542;DHT22;20784;51.332;12.410;2023-05-13T13:59:12;21.20;99.90
34542;DHT22;20784;51.332;12.410;2023-05-13T14:01:37;21.20;99.90
34542;DHT22;20784;51.332;12.410;2023-05-13T14:04:16;21.20;99.90
34542;DHT22;20784;51.332;12.410;2023-05-13T14:06:46;21.00;99.90
34542;DHT22;20784;51.332;12.410;2023-05-13T14:09:12;20.90;99.90
34542;DHT22;20784;51.332;12.410;2023-05-13T14:11:38;20.80;99.90
34542;DHT22;20784;51.332;12.410;2023-05-13T14:14:13;20.90;99.90
34542;DHT22;20784;51.332;12.410;2023-05-13T14:16:39;20.70;99.90
34542;DHT22;20784;51.332;12.410;2023-05-13T14:19:04;20.70;99.90
34542;DHT22;20784;51.332;12.410;2023-05-13T14:21:31;20.60;99.90
34542;DHT22;20784;51.332;12.410;2023-05-13T14:23:56;20.80;99.90
34542;DHT22;20784;51.332;12.410;2023-05-13T14:26:24;20.70;99.90
34542;DHT22;20784;51.332;12.410;2023-05-13T14:28:50;21.00;99.90
34542;DHT22;20784;51.332;12.410;2023-05-13T14:31:27;21.10;99.90
34542;DHT22;20784;51.332;12.410;2023-05-13T14:33:52;20.80;99.90
34542;DHT22;20784;51.332;12.410;2023-05-13T14:36:20;20.80;99.90
34542;DHT22;20784;51.332;12.410;2023-05-13T14:38:47;20.90;1.00
34542;DHT22;20784;51.332;12.410;2023-05-13T14:41:13;20.80;1.00
34542;DHT22;20784;51.332;12.410;2023-05-13T14:43:45;20.90;1.00
34542;DHT22;20784;51.332;12.410;2023-05-13T14:46:17;20.80;1.00
34542;DHT22;20784;51.332;12.410;2023-05-13T14:48:53;20.60;1.00
34542;DHT22;20784;51.332;12.410;2023-05-13T14:51:25;20.60;1.00
34542;DHT22;20784;51.332;12.410;2023-05-13T14:53:50;20.60;1.00
34542;DHT22;20784;51.332;12.410;2023-05-13T14:56:16;20.70;1.00
34542;DHT22;20784;51.332;12.410;2023-05-13T14:58:42;20.70;1.00
34542;DHT22;20784;51.332;12.410;2023-05-13T15:01:07;20.70;1.00
34542;DHT22;20784;51.332;12.410;2023-05-13T15:03:33;20.80;1.00
34542;DHT22;20784;51.332;12.410;2023-05-13T15:05:58;21.00;1.00
34542;DHT22;20784;51.332;12.410;2023-05-13T15:08:24;21.10;1.00
34542;DHT22;20784;51.332;12.410;2023-05-13T15:10:55;21.10;1.00
34542;DHT22;20784;51.332;12.410;2023-05-13T15:13:23;21.10;1.00
34542;DHT22;20784;51.332;12.410;2023-05-13T15:15:54;21.10;1.00
34542;DHT22;20784;51.332;12.410;2023-05-13T15:18:23;20.90;99.90
34542;DHT22;20784;51.332;12.410;2023-05-13T15:21:17;20.60;99.90
34542;DHT22;20784;51.332;12.410;2023-05-13T15:23:48;20.30;1.00
34542;DHT22;20784;51.332;12.410;2023-05-13T15:26:14;20.50;99.90
34542;DHT22;20784;51.332;12.410;2023-05-13T15:28:40;20.60;99.90
34542;DHT22;20784;51.332;12.410;2023-05-13T15:31:05;20.50;99.90
34542;DHT22;20784;51.332;12.410;2023-05-13T15:33:31;20.50;99.90
34542;DHT22;20784;51.332;12.410;2023-05-13T15:36:00;20.50;99.90
34542;DHT22;20784;51.332;12.410;2023-05-13T15:38:26;20.70;99.90
34542;DHT22;20784;51.332;12.410;2023-05-13T15:40:51;20.60;99.90
34542;DHT22;20784;51.332;12.410;2023-05-13T15:43:17;20.60;99.90
34542;DHT22;20784;51.332;12.410;2023-05-13T15:45:49;20.50;99.90